createdAt,value
2022-12-26T00:00:38.381Z,67.00
2022-12-26T00:03:05.716Z,109.23
2022-12-26T00:05:37.259Z,257.83
2022-12-26T00:08:04.804Z,101.50
2022-12-26T00:10:32.029Z,158.50
2022-12-26T00:13:37.140Z,131.50
2022-12-26T00:15:47.709Z,133.53
2022-12-26T00:18:15.244Z,132.47
2022-12-26T00:20:42.453Z,219.97
2022-12-26T00:23:09.698Z,178.03
2022-12-26T00:25:37.191Z,140.50
2022-12-26T00:28:04.602Z,113.13
2022-12-26T00:30:31.806Z,155.53
2022-12-26T00:32:59.065Z,182.17
2022-12-26T00:35:26.218Z,144.50
2022-12-26T00:37:54.608Z,107.70
2022-12-26T00:40:21.798Z,97.43
2022-12-26T00:42:49.003Z,83.93
2022-12-26T00:45:16.241Z,59.97
2022-12-26T00:47:43.432Z,78.57
2022-12-26T00:50:12.539Z,82.13
2022-12-26T00:52:41.689Z,99.70
2022-12-26T00:55:09.290Z,128.03
2022-12-26T00:57:37.171Z,129.17
2022-12-26T01:00:05.737Z,136.77
2022-12-26T01:02:39.208Z,136.73
2022-12-26T01:05:11.389Z,93.43
2022-12-26T01:08:22.369Z,113.83
2022-12-26T01:10:29.737Z,110.50
2022-12-26T01:12:57.084Z,84.63
2022-12-26T01:15:24.242Z,106.53
2022-12-26T01:17:51.385Z,66.97
2022-12-26T01:20:19.395Z,101.67
2022-12-26T01:22:46.610Z,95.43
2022-12-26T01:25:14.140Z,87.73
2022-12-26T01:27:41.325Z,83.73
2022-12-26T01:30:09.461Z,77.30
2022-12-26T01:32:36.608Z,111.80
2022-12-26T01:35:03.995Z,68.60
2022-12-26T01:37:31.217Z,148.20
2022-12-26T01:39:58.390Z,123.73
2022-12-26T01:42:26.559Z,86.40
2022-12-26T01:45:11.809Z,136.00
2022-12-26T01:48:04.046Z,83.30
2022-12-26T01:50:41.538Z,105.30
2022-12-26T01:53:14.252Z,119.57
2022-12-26T01:55:43.208Z,166.37
2022-12-26T01:58:19.539Z,128.07
2022-12-26T02:00:47.056Z,145.53
2022-12-26T02:03:33.742Z,111.73
2022-12-26T02:06:01.881Z,108.50
2022-12-26T02:08:33.350Z,157.30
2022-12-26T02:11:22.939Z,150.00
2022-12-26T02:13:50.288Z,222.37
2022-12-26T02:16:20.217Z,120.00
2022-12-26T02:18:47.452Z,89.83
2022-12-26T02:21:26.003Z,126.60
2022-12-26T02:24:23.616Z,215.47
2022-12-26T02:26:59.674Z,222.80
2022-12-26T02:29:50.086Z,244.77
2022-12-26T02:32:36.711Z,212.33
2022-12-26T02:35:33.004Z,237.23
2022-12-26T02:38:26.752Z,97.03
2022-12-26T02:41:16.290Z,140.53
2022-12-26T02:43:59.633Z,161.63
2022-12-26T02:47:03.005Z,151.03
2022-12-26T02:50:12.892Z,195.77
2022-12-26T02:53:23.404Z,121.13
2022-12-26T02:56:14.910Z,102.60
2022-12-26T02:59:10.133Z,113.17
2022-12-26T03:02:01.734Z,123.73
2022-12-26T03:04:51.749Z,163.70
2022-12-26T03:07:43.211Z,109.60
2022-12-26T03:10:40.958Z,110.70
2022-12-26T03:13:26.577Z,98.70
2022-12-26T03:16:23.592Z,105.47
2022-12-26T03:18:57.730Z,94.03
2022-12-26T03:21:32.052Z,108.77
2022-12-26T03:23:59.639Z,99.40
2022-12-26T03:26:47.467Z,131.70
2022-12-26T03:29:38.858Z,92.13
2022-12-26T03:32:09.835Z,105.90
2022-12-26T03:34:42.599Z,123.97
2022-12-26T03:37:49.261Z,128.97
2022-12-26T03:40:59.215Z,80.93
2022-12-26T03:44:19.064Z,69.33
2022-12-26T03:47:21.616Z,64.10
2022-12-26T03:50:15.626Z,53.03
2022-12-26T03:53:14.437Z,72.83
2022-12-26T03:56:13.749Z,61.73
2022-12-26T03:59:08.985Z,72.17
2022-12-26T04:01:56.855Z,70.60
2022-12-26T04:04:46.373Z,57.10
2022-12-26T04:07:56.581Z,77.00
2022-12-26T04:10:53.372Z,49.53
2022-12-26T04:13:42.791Z,60.00
2022-12-26T04:16:43.655Z,70.07
2022-12-26T04:19:48.621Z,60.33
2022-12-26T04:22:45.564Z,78.73
2022-12-26T04:25:48.995Z,70.07
2022-12-26T04:28:39.706Z,68.00
2022-12-26T04:31:46.986Z,71.73
2022-12-26T04:34:45.293Z,54.77
2022-12-26T04:37:41.827Z,57.40
2022-12-26T04:40:37.828Z,56.27
2022-12-26T04:43:49.614Z,55.67
2022-12-26T04:46:15.990Z,44.50
2022-12-26T04:49:04.321Z,59.20
2022-12-26T04:51:31.477Z,51.43
2022-12-26T04:53:58.882Z,78.33
2022-12-26T04:56:26.288Z,52.97
2022-12-26T04:58:53.506Z,50.53
2022-12-26T05:01:40.469Z,51.87
2022-12-26T05:04:38.094Z,55.83
2022-12-26T05:07:29.909Z,50.03
2022-12-26T05:09:57.112Z,51.23
2022-12-26T05:12:28.597Z,68.67
2022-12-26T05:14:55.839Z,53.97
2022-12-26T05:17:41.619Z,67.17
2022-12-26T05:20:31.272Z,70.87
2022-12-26T05:23:19.872Z,100.40
2022-12-26T05:26:07.212Z,76.57
2022-12-26T05:28:43.473Z,68.60
2022-12-26T05:31:16.496Z,70.90
2022-12-26T05:34:02.809Z,56.93
2022-12-26T05:36:41.871Z,50.20
2022-12-26T05:39:09.525Z,50.93
2022-12-26T05:41:37.740Z,57.17
2022-12-26T05:44:05.873Z,66.60
2022-12-26T05:46:34.314Z,61.17
2022-12-26T05:49:01.661Z,57.53
2022-12-26T05:51:28.842Z,54.27
2022-12-26T05:53:56.070Z,65.00
2022-12-26T05:56:23.616Z,59.17
2022-12-26T05:58:59.521Z,48.03
2022-12-26T06:01:28.677Z,46.70
2022-12-26T06:03:58.386Z,42.50
2022-12-26T06:06:26.703Z,38.53
2022-12-26T06:08:55.934Z,44.70
2022-12-26T06:11:25.701Z,41.00
2022-12-26T06:13:53.271Z,41.97
2022-12-26T06:16:20.681Z,49.00
2022-12-26T06:18:48.667Z,40.73
2022-12-26T06:21:18.757Z,30.50
2022-12-26T06:23:46.500Z,33.97
2022-12-26T06:26:13.976Z,38.60
2022-12-26T06:28:42.934Z,49.30
2022-12-26T06:31:14.461Z,37.63
2022-12-26T06:33:42.119Z,44.83
2022-12-26T06:36:12.917Z,29.40
2022-12-26T06:38:40.169Z,36.83
2022-12-26T06:41:09.771Z,31.50
2022-12-26T06:43:38.177Z,30.97
2022-12-26T06:46:07.915Z,31.83
2022-12-26T06:48:39.732Z,31.50
2022-12-26T06:51:12.308Z,31.43
2022-12-26T06:53:39.719Z,36.10
2022-12-26T06:56:10.771Z,40.80
2022-12-26T06:58:39.093Z,42.50
2022-12-26T07:01:12.297Z,47.03
2022-12-26T07:03:46.592Z,33.93
2022-12-26T07:06:23.667Z,36.17
2022-12-26T07:08:57.382Z,42.07
2022-12-26T07:11:26.890Z,33.23
2022-12-26T07:13:54.891Z,42.60
2022-12-26T07:16:22.799Z,29.27
2022-12-26T07:18:54.003Z,34.23
2022-12-26T07:21:21.792Z,34.07
2022-12-26T07:23:49.408Z,38.83
2022-12-26T07:26:16.998Z,30.87
2022-12-26T07:28:44.502Z,29.47
2022-12-26T07:31:19.861Z,26.50
2022-12-26T07:33:55.074Z,30.93
2022-12-26T07:36:22.610Z,36.33
2022-12-26T07:38:49.811Z,33.90
2022-12-26T07:41:35.884Z,33.90
2022-12-26T07:44:03.460Z,49.37
2022-12-26T07:46:30.689Z,40.93
2022-12-26T07:48:58.036Z,38.30
2022-12-26T07:51:26.423Z,36.70
2022-12-26T07:53:53.593Z,35.63
2022-12-26T07:56:20.921Z,34.30
2022-12-26T07:58:49.477Z,51.50
2022-12-26T08:01:16.944Z,33.70
2022-12-26T08:03:44.785Z,31.83
2022-12-26T08:06:12.339Z,37.63
2022-12-26T08:08:44.044Z,50.80
2022-12-26T08:11:16.916Z,42.17
2022-12-26T08:13:46.969Z,38.20
2022-12-26T08:16:15.062Z,44.10
2022-12-26T08:18:42.901Z,47.73
2022-12-26T08:21:11.280Z,34.60
2022-12-26T08:23:39.048Z,36.43
2022-12-26T08:26:08.386Z,39.20
2022-12-26T08:28:36.263Z,38.27
2022-12-26T08:31:08.285Z,39.13
2022-12-26T08:33:36.168Z,39.73
2022-12-26T08:36:05.595Z,34.53
2022-12-26T08:38:34.018Z,37.53
2022-12-26T08:41:02.252Z,42.03
2022-12-26T08:46:18.846Z,37.30
2022-12-26T08:48:46.864Z,38.93
2022-12-26T08:51:22.669Z,32.13
2022-12-26T08:53:51.235Z,37.93
2022-12-26T08:56:24.984Z,34.87
2022-12-26T08:58:53.530Z,28.80
2022-12-26T09:01:27.759Z,40.13
2022-12-26T09:03:56.945Z,33.07
2022-12-26T09:06:25.421Z,39.30
2022-12-26T09:08:53.571Z,28.50
2022-12-26T09:11:23.451Z,26.47
2022-12-26T09:13:50.857Z,27.40
2022-12-26T09:16:21.766Z,28.00
2022-12-26T09:18:54.418Z,29.30
2022-12-26T09:21:22.604Z,27.70
2022-12-26T09:23:50.430Z,28.33
2022-12-26T09:26:19.964Z,22.07
2022-12-26T09:28:48.083Z,17.80
2022-12-26T09:31:18.295Z,22.30
2022-12-26T09:33:47.237Z,22.60
2022-12-26T09:36:20.279Z,23.37
2022-12-26T09:38:49.330Z,23.10
2022-12-26T09:41:42.050Z,16.47
2022-12-26T09:44:20.911Z,19.27
2022-12-26T09:47:26.026Z,19.13
2022-12-26T09:50:04.491Z,22.53
2022-12-26T09:52:47.486Z,18.87
2022-12-26T09:55:50.181Z,20.30
2022-12-26T09:58:43.787Z,19.43
2022-12-26T10:01:17.218Z,19.40
2022-12-26T10:03:52.387Z,19.20
2022-12-26T10:06:43.022Z,21.97
2022-12-26T10:09:35.269Z,17.77
2022-12-26T10:12:13.415Z,18.57
2022-12-26T10:14:43.632Z,18.47
2022-12-26T10:17:46.784Z,17.07
2022-12-26T10:20:23.968Z,17.00
2022-12-26T10:23:32.196Z,18.70
2022-12-26T10:26:08.903Z,16.40
2022-12-26T10:28:59.461Z,17.50
2022-12-26T10:31:45.000Z,15.70
2022-12-26T10:34:41.687Z,16.83
2022-12-26T10:37:15.610Z,16.90
2022-12-26T10:40:14.805Z,15.47
2022-12-26T10:42:45.175Z,16.57
2022-12-26T10:45:18.506Z,15.00
2022-12-26T10:47:47.995Z,14.53
2022-12-26T10:50:23.827Z,15.47
2022-12-26T10:52:54.971Z,15.17
2022-12-26T10:55:31.783Z,15.80
2022-12-26T10:58:15.165Z,16.00
2022-12-26T11:00:42.526Z,14.87
2022-12-26T11:03:12.800Z,14.67
2022-12-26T11:08:49.493Z,13.50
2022-12-26T11:11:24.059Z,12.37
2022-12-26T11:14:02.751Z,12.33
2022-12-26T11:16:34.510Z,13.73
2022-12-26T11:19:02.581Z,12.70
2022-12-26T11:21:32.388Z,14.17
2022-12-26T11:24:08.642Z,14.17
2022-12-26T11:26:41.055Z,12.80
2022-12-26T11:29:21.860Z,10.40
2022-12-26T11:32:02.655Z,11.90
2022-12-26T11:34:36.325Z,11.47
2022-12-26T11:37:06.321Z,12.77
2022-12-26T11:39:36.984Z,10.27
2022-12-26T11:42:12.685Z,9.90
2022-12-26T11:44:45.490Z,9.60
2022-12-26T11:47:15.574Z,9.57
2022-12-26T11:50:05.478Z,9.30
2022-12-26T11:52:39.132Z,10.90
2022-12-26T11:55:22.320Z,9.97
2022-12-26T11:58:17.763Z,10.80
2022-12-26T12:00:51.688Z,8.90
2022-12-26T12:03:21.688Z,12.33
2022-12-26T12:06:36.704Z,11.40
2022-12-26T12:09:08.264Z,11.77
2022-12-26T12:12:10.845Z,8.97
2022-12-26T12:15:15.730Z,8.90
2022-12-26T12:18:03.471Z,8.70
2022-12-26T12:21:04.852Z,8.67
2022-12-26T12:23:47.022Z,11.77
2022-12-26T12:26:31.483Z,9.07
2022-12-26T12:29:27.765Z,8.80
2022-12-26T12:32:17.364Z,6.83
2022-12-26T12:35:22.909Z,8.47
2022-12-26T12:38:09.518Z,6.00
2022-12-26T12:40:48.840Z,8.10
2022-12-26T12:43:42.955Z,9.47
2022-12-26T12:46:38.951Z,7.13
2022-12-26T12:49:35.594Z,9.37
2022-12-26T12:52:02.778Z,10.87
2022-12-26T12:55:05.531Z,6.97
2022-12-26T12:57:48.216Z,4.93
2022-12-26T13:00:21.659Z,5.50
2022-12-26T13:02:59.796Z,4.57
2022-12-26T13:05:39.079Z,4.40
2022-12-26T13:08:15.432Z,2.60
2022-12-26T13:10:50.949Z,2.83
2022-12-26T13:13:53.728Z,5.17
2022-12-26T13:16:25.651Z,3.33
2022-12-26T13:19:01.773Z,2.23
2022-12-26T13:21:34.634Z,5.63
2022-12-26T13:24:25.066Z,2.43
2022-12-26T13:27:10.040Z,3.10
2022-12-26T13:29:43.325Z,1.20
2022-12-26T13:32:21.539Z,4.10
2022-12-26T13:34:53.323Z,1.53
2022-12-26T13:37:38.895Z,2.27
2022-12-26T13:40:12.177Z,3.27
2022-12-26T13:43:24.756Z,3.13
2022-12-26T13:45:56.350Z,1.50
2022-12-26T13:48:27.119Z,2.40
2022-12-26T13:51:00.891Z,1.83
2022-12-26T13:53:37.138Z,2.37
2022-12-26T13:56:30.785Z,2.60
2022-12-26T13:59:07.064Z,1.10
2022-12-26T14:01:43.514Z,4.53
2022-12-26T14:04:58.131Z,1.87
2022-12-26T14:07:48.533Z,4.93
2022-12-26T14:10:52.738Z,7.50
2022-12-26T14:13:41.794Z,6.43
2022-12-26T14:16:20.783Z,3.30
2022-12-26T14:19:16.773Z,2.63
2022-12-26T14:22:03.496Z,1.87
2022-12-26T14:24:36.416Z,3.07
2022-12-26T14:27:22.109Z,3.50
2022-12-26T14:30:11.045Z,3.23
2022-12-26T14:32:58.247Z,5.90
2022-12-26T14:35:46.550Z,3.80
2022-12-26T14:38:23.071Z,3.80
2022-12-26T14:41:05.739Z,2.27
2022-12-26T14:43:40.873Z,5.03
2022-12-26T14:46:30.111Z,4.60
2022-12-26T14:48:59.939Z,6.30
2022-12-26T14:51:31.590Z,4.60
2022-12-26T14:54:34.454Z,4.30
2022-12-26T14:57:40.688Z,4.07
2022-12-26T15:00:35.112Z,2.10
2022-12-26T15:03:02.341Z,4.33
2022-12-26T15:05:37.414Z,4.30
2022-12-26T15:08:51.799Z,6.33
2022-12-26T15:11:43.945Z,1.90
2022-12-26T15:14:44.163Z,3.40
2022-12-26T15:17:29.639Z,6.63
2022-12-26T15:20:17.893Z,5.37
2022-12-26T15:22:57.769Z,3.77
2022-12-26T15:25:33.262Z,10.93
2022-12-26T15:28:23.301Z,6.90
2022-12-26T15:31:25.496Z,3.70
2022-12-26T15:34:20.319Z,6.90
2022-12-26T15:37:02.400Z,5.30
2022-12-26T15:39:57.530Z,6.17
2022-12-26T15:42:52.337Z,5.93
2022-12-26T15:45:54.470Z,6.47
2022-12-26T15:48:45.436Z,5.73
2022-12-26T15:51:17.084Z,5.80
2022-12-26T15:54:11.216Z,4.20
2022-12-26T15:57:08.892Z,5.47
2022-12-26T15:59:52.317Z,5.80
2022-12-26T16:02:25.981Z,6.03
2022-12-26T16:05:26.764Z,4.63
2022-12-26T16:08:16.067Z,5.47
2022-12-26T16:10:43.672Z,7.77
2022-12-26T16:13:22.752Z,9.73
2022-12-26T16:15:55.661Z,12.53
2022-12-26T16:18:30.835Z,4.53
2022-12-26T16:21:19.675Z,6.73
2022-12-26T16:23:49.891Z,4.27
2022-12-26T16:26:30.223Z,8.43
2022-12-26T16:29:00.873Z,6.23
2022-12-26T16:31:31.016Z,9.10
2022-12-26T16:34:00.169Z,8.30
2022-12-26T16:36:29.936Z,9.13
2022-12-26T16:38:57.870Z,6.67
2022-12-26T16:41:28.172Z,6.10
2022-12-26T16:43:58.222Z,5.00
2022-12-26T16:46:29.889Z,7.60
2022-12-26T16:48:59.605Z,5.63
2022-12-26T16:51:45.945Z,5.63
2022-12-26T16:54:17.646Z,6.07
2022-12-26T16:56:52.674Z,3.57
2022-12-26T16:59:24.237Z,7.33
2022-12-26T17:01:57.817Z,7.57
2022-12-26T17:04:27.310Z,4.10
2022-12-26T17:07:02.333Z,6.03
2022-12-26T17:09:39.478Z,7.13
2022-12-26T17:12:15.072Z,8.60
2022-12-26T17:14:47.194Z,6.50
2022-12-26T17:17:23.407Z,4.80
2022-12-26T17:19:54.488Z,8.70
2022-12-26T17:22:33.477Z,5.30
2022-12-26T17:25:26.817Z,9.80
2022-12-26T17:28:12.338Z,7.60
2022-12-26T17:30:42.837Z,6.60
2022-12-26T17:33:14.555Z,5.87
2022-12-26T17:36:33.284Z,11.83
2022-12-26T17:38:32.847Z,5.90
2022-12-26T17:41:03.988Z,8.37
2022-12-26T17:43:37.124Z,11.50
2022-12-26T17:46:06.848Z,9.73
2022-12-26T17:48:34.797Z,8.70
2022-12-26T17:51:04.854Z,15.20
2022-12-26T17:53:34.963Z,13.03
2022-12-26T17:56:06.057Z,9.07
2022-12-26T17:58:34.893Z,6.60
2022-12-26T18:01:02.792Z,3.93
2022-12-26T18:03:30.122Z,5.40
2022-12-26T18:05:57.809Z,7.77
2022-12-26T18:08:29.886Z,4.90
2022-12-26T18:10:58.259Z,6.53
2022-12-26T18:13:25.564Z,10.80
2022-12-26T18:15:54.362Z,5.17
2022-12-26T18:18:27.047Z,6.60
2022-12-26T18:20:54.517Z,10.03
2022-12-26T18:23:22.929Z,6.73
2022-12-26T18:25:54.511Z,8.80
2022-12-26T18:28:22.702Z,4.63
2022-12-26T18:30:49.968Z,10.10
2022-12-26T18:33:17.102Z,9.93
2022-12-26T18:35:45.020Z,6.20
2022-12-26T18:38:16.635Z,10.43
2022-12-26T18:40:49.356Z,7.20
2022-12-26T18:43:16.749Z,9.93
2022-12-26T18:45:43.991Z,8.67
2022-12-26T18:48:14.500Z,11.80
2022-12-26T18:50:43.124Z,10.20
2022-12-26T18:53:11.429Z,5.13
2022-12-26T18:55:39.940Z,7.80
2022-12-26T18:58:07.501Z,7.37
2022-12-26T19:00:35.965Z,10.90
2022-12-26T19:03:03.572Z,7.13
2022-12-26T19:05:34.143Z,10.13
2022-12-26T19:08:03.494Z,8.60
2022-12-26T19:10:33.487Z,4.37
2022-12-26T19:13:05.870Z,12.40
2022-12-26T19:15:35.349Z,6.50
2022-12-26T19:18:04.530Z,12.60
2022-12-26T19:20:32.189Z,4.60
2022-12-26T19:22:59.514Z,8.10
2022-12-26T19:25:26.990Z,5.33
2022-12-26T19:27:54.360Z,6.13
2022-12-26T19:30:22.671Z,5.03
2022-12-26T19:32:50.551Z,6.37
2022-12-26T19:35:18.573Z,10.13
2022-12-26T19:37:45.987Z,8.80
2022-12-26T19:40:24.520Z,4.60
2022-12-26T19:42:52.424Z,3.00
2022-12-26T19:45:19.813Z,8.03
2022-12-26T19:47:47.049Z,9.83
2022-12-26T19:50:14.249Z,3.93
2022-12-26T19:52:41.535Z,6.60
2022-12-26T19:55:11.409Z,7.17
2022-12-26T19:57:38.879Z,7.10
2022-12-26T20:00:06.952Z,7.83
2022-12-26T20:02:41.312Z,6.07
2022-12-26T20:05:09.442Z,4.13
2022-12-26T20:07:36.760Z,5.67
2022-12-26T20:10:05.349Z,13.73
2022-12-26T20:12:32.652Z,4.70
2022-12-26T20:14:59.846Z,4.20
2022-12-26T20:17:27.217Z,4.07
2022-12-26T20:19:54.580Z,8.40
2022-12-26T20:22:21.843Z,8.70
2022-12-26T20:24:49.133Z,5.30
2022-12-26T20:27:17.663Z,5.80
2022-12-26T20:29:45.029Z,6.10
2022-12-26T20:32:12.846Z,6.33
2022-12-26T20:34:40.087Z,6.37
2022-12-26T20:37:07.821Z,9.10
2022-12-26T20:39:35.173Z,7.93
2022-12-26T20:42:02.481Z,6.87
2022-12-26T20:44:29.761Z,5.10
2022-12-26T20:46:57.154Z,8.47
2022-12-26T20:49:24.395Z,6.90
2022-12-26T20:51:51.734Z,7.40
2022-12-26T20:54:19.134Z,7.13
2022-12-26T20:56:46.374Z,7.10
2022-12-26T20:59:17.649Z,5.60
2022-12-26T21:01:45.257Z,7.03
2022-12-26T21:04:20.968Z,4.87
2022-12-26T21:06:50.391Z,5.03
2022-12-26T21:09:17.681Z,9.27
2022-12-26T21:11:45.543Z,6.87
2022-12-26T21:14:16.564Z,9.33
2022-12-26T21:16:50.202Z,5.77
2022-12-26T21:19:18.526Z,8.30
2022-12-26T21:21:48.248Z,6.30
2022-12-26T21:24:22.245Z,5.43
2022-12-26T21:26:49.677Z,4.80
2022-12-26T21:29:19.822Z,8.67
2022-12-26T21:31:47.908Z,7.53
2022-12-26T21:34:17.452Z,3.67
2022-12-26T21:37:04.140Z,12.07
2022-12-26T21:39:32.832Z,5.70
2022-12-26T21:42:01.035Z,8.47
2022-12-26T21:44:28.311Z,5.00
2022-12-26T21:46:55.575Z,4.73
2022-12-26T21:49:23.084Z,5.07
2022-12-26T21:51:50.241Z,7.50
2022-12-26T21:54:36.121Z,4.33
2022-12-26T21:57:03.790Z,4.17
2022-12-26T21:59:50.939Z,9.90
2022-12-26T22:02:37.163Z,3.87
2022-12-26T22:05:04.967Z,4.67
2022-12-26T22:07:32.220Z,2.47
2022-12-26T22:09:59.407Z,5.17
2022-12-26T22:12:45.296Z,6.80
2022-12-26T22:15:31.231Z,4.63
2022-12-26T22:17:59.116Z,6.50
2022-12-26T22:20:26.376Z,8.80
2022-12-26T22:22:55.417Z,7.27
2022-12-26T22:25:22.688Z,5.13
2022-12-26T22:27:49.958Z,6.30
2022-12-26T22:30:17.288Z,7.03
2022-12-26T22:32:44.501Z,5.40
2022-12-26T22:35:18.250Z,5.03
2022-12-26T22:37:46.282Z,6.13
2022-12-26T22:40:13.587Z,6.27
2022-12-26T22:42:40.763Z,8.17
2022-12-26T22:45:08.625Z,6.13
2022-12-26T22:47:35.838Z,3.53
2022-12-26T22:50:04.130Z,7.20
2022-12-26T22:52:31.868Z,4.60
2022-12-26T22:54:59.195Z,5.33
2022-12-26T22:57:26.400Z,5.87
2022-12-26T23:00:10.855Z,6.77
2022-12-26T23:02:38.491Z,3.23
2022-12-26T23:05:06.424Z,6.23
2022-12-26T23:07:33.961Z,3.80
2022-12-26T23:10:01.432Z,6.27
2022-12-26T23:12:44.066Z,5.70
2022-12-26T23:15:13.066Z,5.27
2022-12-26T23:18:03.543Z,6.57
2022-12-26T23:20:54.893Z,5.67
2022-12-26T23:23:23.380Z,6.53
2022-12-26T23:25:51.140Z,1.67
2022-12-26T23:28:38.164Z,4.20
2022-12-26T23:31:05.678Z,10.43
2022-12-26T23:33:33.589Z,3.77
2022-12-26T23:36:01.260Z,7.20
2022-12-26T23:38:28.647Z,5.27
2022-12-26T23:40:55.914Z,5.03
2022-12-26T23:43:23.111Z,4.00
2022-12-26T23:45:50.460Z,6.20
2022-12-26T23:48:17.671Z,6.03
2022-12-26T23:50:44.933Z,7.60
2022-12-26T23:53:12.706Z,2.10
2022-12-26T23:55:42.065Z,7.17
2022-12-26T23:58:09.902Z,6.60
